createdAt,value
2022-12-01T00:01:10.152Z,6.98
2022-12-01T00:03:36.634Z,6.97
2022-12-01T00:06:05.975Z,6.95
2022-12-01T00:08:34.059Z,6.88
2022-12-01T00:11:09.412Z,6.83
2022-12-01T00:13:36.579Z,6.88
2022-12-01T00:16:14.389Z,6.91
2022-12-01T00:18:41.182Z,6.96
2022-12-01T00:21:14.834Z,6.98
2022-12-01T00:23:48.997Z,6.89
2022-12-01T00:26:16.704Z,6.87
2022-12-01T00:28:43.674Z,6.85
2022-12-01T00:31:11.885Z,6.85
2022-12-01T00:33:39.182Z,6.82
2022-12-01T00:36:06.319Z,6.79
2022-12-01T00:38:33.443Z,6.81
2022-12-01T00:40:59.869Z,6.73
2022-12-01T00:43:26.230Z,6.73
2022-12-01T00:45:52.641Z,6.79
2022-12-01T00:48:19.202Z,6.84
2022-12-01T00:50:45.915Z,6.84
2022-12-01T00:53:12.323Z,6.79
2022-12-01T00:55:40.292Z,6.83
2022-12-01T00:58:07.553Z,6.78
2022-12-01T01:00:34.479Z,6.83
2022-12-01T01:03:01.367Z,6.74
2022-12-01T01:05:27.759Z,6.77
2022-12-01T01:07:54.212Z,6.85
2022-12-01T01:10:20.749Z,6.81
2022-12-01T01:12:47.223Z,6.76
2022-12-01T01:15:13.689Z,6.92
2022-12-01T01:17:40.143Z,6.85
2022-12-01T01:20:07.068Z,6.86
2022-12-01T01:22:35.094Z,6.83
2022-12-01T01:25:01.654Z,6.70
2022-12-01T01:27:28.033Z,6.70
2022-12-01T01:29:54.411Z,6.15
2022-12-01T01:32:20.925Z,5.92
2022-12-01T01:34:47.432Z,5.97
2022-12-01T01:37:13.853Z,5.68
2022-12-01T01:39:40.200Z,5.57
2022-12-01T01:42:06.632Z,5.04
2022-12-01T01:44:48.820Z,5.14
2022-12-01T01:47:18.753Z,5.44
2022-12-01T01:49:45.336Z,5.36
2022-12-01T01:52:12.026Z,5.25
2022-12-01T01:54:42.418Z,5.37
2022-12-01T01:57:11.820Z,5.55
2022-12-01T01:59:45.710Z,5.75
2022-12-01T02:02:13.195Z,5.72
2022-12-01T02:04:42.386Z,5.27
2022-12-01T02:07:10.622Z,5.36
2022-12-01T02:09:37.032Z,5.60
2022-12-01T02:12:32.816Z,5.79
2022-12-01T02:15:06.597Z,5.60
2022-12-01T02:17:55.875Z,5.45
2022-12-01T02:20:46.879Z,5.41
2022-12-01T02:23:50.980Z,5.45
2022-12-01T02:26:54.977Z,5.55
2022-12-01T02:29:33.429Z,5.33
2022-12-01T02:32:33.693Z,4.96
2022-12-01T02:35:21.848Z,5.02
2022-12-01T02:38:06.978Z,4.88
2022-12-01T02:40:59.662Z,4.43
2022-12-01T02:43:41.893Z,4.56
2022-12-01T02:46:23.775Z,4.69
2022-12-01T02:48:54.019Z,4.53
2022-12-01T02:51:26.204Z,4.57
2022-12-01T02:53:53.311Z,4.65
2022-12-01T02:56:21.965Z,4.75
2022-12-01T02:58:48.363Z,4.64
2022-12-01T03:01:43.062Z,4.44
2022-12-01T03:04:26.373Z,4.54
2022-12-01T03:07:12.020Z,4.51
2022-12-01T03:09:45.049Z,4.49
2022-12-01T03:12:37.569Z,4.65
2022-12-01T03:15:14.063Z,4.76
2022-12-01T03:17:54.723Z,4.65
2022-12-01T03:21:04.817Z,4.73
2022-12-01T03:23:35.583Z,4.85
2022-12-01T03:26:06.966Z,4.84
2022-12-01T03:28:39.912Z,4.50
2022-12-01T03:31:11.776Z,4.45
2022-12-01T03:33:46.550Z,4.36
2022-12-01T03:36:27.706Z,4.41
2022-12-01T03:39:00.212Z,4.24
2022-12-01T03:41:32.208Z,4.37
2022-12-01T03:44:11.084Z,4.12
2022-12-01T03:46:53.840Z,4.25
2022-12-01T03:49:22.132Z,4.39
2022-12-01T03:51:58.502Z,4.44
2022-12-01T03:54:33.696Z,4.57
2022-12-01T03:57:09.758Z,4.55
2022-12-01T03:59:37.738Z,4.56
2022-12-01T04:02:07.211Z,4.67
2022-12-01T04:04:34.094Z,4.82
2022-12-01T04:07:00.618Z,4.81
2022-12-01T04:09:27.014Z,4.75
2022-12-01T04:12:11.913Z,4.86
2022-12-01T04:14:38.432Z,4.94
2022-12-01T04:17:04.869Z,4.98
2022-12-01T04:19:32.010Z,4.91
2022-12-01T04:21:58.362Z,4.88
2022-12-01T04:24:24.700Z,4.90
2022-12-01T04:26:51.099Z,4.93
2022-12-01T04:29:17.644Z,4.93
2022-12-01T04:31:44.160Z,4.83
2022-12-01T04:34:11.093Z,4.83
2022-12-01T04:36:37.550Z,4.88
2022-12-01T04:39:04.370Z,4.92
2022-12-01T04:41:30.830Z,4.74
2022-12-01T04:43:57.261Z,5.02
2022-12-01T04:46:24.793Z,4.93
2022-12-01T04:48:51.994Z,4.98
2022-12-01T04:51:18.582Z,4.94
2022-12-01T04:53:45.151Z,4.95
2022-12-01T04:56:11.548Z,4.96
2022-12-01T04:58:37.945Z,4.93
2022-12-01T05:01:10.983Z,4.64
2022-12-01T05:03:39.503Z,4.74
2022-12-01T05:06:14.679Z,4.70
2022-12-01T05:08:41.742Z,4.71
2022-12-01T05:11:11.761Z,4.94
2022-12-01T05:13:43.486Z,4.91
2022-12-01T05:16:12.169Z,4.82
2022-12-01T05:18:38.961Z,4.56
2022-12-01T05:21:07.526Z,4.54
2022-12-01T05:23:35.669Z,4.58
2022-12-01T05:26:03.487Z,4.47
2022-12-01T05:28:30.245Z,4.58
2022-12-01T05:30:56.789Z,4.22
2022-12-01T05:33:25.357Z,4.24
2022-12-01T05:35:52.364Z,4.46
2022-12-01T05:38:19.448Z,4.57
2022-12-01T05:40:53.773Z,4.58
2022-12-01T05:43:27.134Z,4.62
2022-12-01T05:45:56.551Z,4.63
2022-12-01T05:48:23.374Z,4.62
2022-12-01T05:50:49.837Z,4.53
2022-12-01T05:53:16.385Z,4.57
2022-12-01T05:55:42.826Z,4.59
2022-12-01T05:58:09.925Z,4.60
2022-12-01T06:00:42.250Z,4.69
2022-12-01T06:03:11.888Z,4.63
2022-12-01T06:05:38.285Z,4.74
2022-12-01T06:08:04.779Z,4.65
2022-12-01T06:10:31.279Z,4.72
2022-12-01T06:12:57.714Z,4.67
2022-12-01T06:15:24.163Z,4.68
2022-12-01T06:17:50.667Z,4.66
2022-12-01T06:20:17.604Z,4.13
2022-12-01T06:22:44.117Z,3.95
2022-12-01T06:25:10.930Z,4.10
2022-12-01T06:27:37.322Z,3.99
2022-12-01T06:30:04.642Z,4.26
2022-12-01T06:32:31.124Z,4.22
2022-12-01T06:34:57.495Z,4.38
2022-12-01T06:37:23.964Z,4.42
2022-12-01T06:39:50.777Z,4.01
2022-12-01T06:42:17.488Z,3.78
2022-12-01T06:44:43.865Z,3.80
2022-12-01T06:47:10.425Z,3.75
2022-12-01T06:49:37.823Z,3.86
2022-12-01T06:52:05.068Z,3.82
2022-12-01T06:54:31.682Z,3.82
2022-12-01T06:56:58.571Z,3.83
2022-12-01T06:59:26.082Z,3.90
2022-12-01T07:01:53.172Z,3.98
2022-12-01T07:04:19.925Z,3.76
2022-12-01T07:06:46.417Z,3.82
2022-12-01T07:09:12.818Z,3.52
2022-12-01T07:11:39.361Z,3.51
2022-12-01T07:14:05.864Z,3.62
2022-12-01T07:16:32.399Z,3.71
2022-12-01T07:18:59.982Z,3.80
2022-12-01T07:21:26.519Z,3.77
2022-12-01T07:23:53.370Z,3.82
2022-12-01T07:26:19.855Z,3.65
2022-12-01T07:28:46.322Z,3.63
2022-12-01T07:31:18.830Z,3.47
2022-12-01T07:33:45.711Z,3.60
2022-12-01T07:36:13.029Z,3.29
2022-12-01T07:38:39.915Z,3.29
2022-12-01T07:41:12.293Z,3.38
2022-12-01T07:43:39.103Z,3.46
2022-12-01T07:46:22.347Z,3.45
2022-12-01T07:48:49.962Z,3.54
2022-12-01T07:51:17.130Z,3.36
2022-12-01T07:53:49.276Z,3.56
2022-12-01T07:56:16.851Z,3.76
2022-12-01T07:58:43.768Z,3.81
2022-12-01T08:01:13.147Z,3.79
2022-12-01T08:03:40.211Z,3.80
2022-12-01T08:06:07.738Z,3.71
2022-12-01T08:08:35.926Z,3.96
2022-12-01T08:11:23.600Z,3.91
2022-12-01T08:13:51.407Z,3.89
2022-12-01T08:16:20.191Z,3.72
2022-12-01T08:18:46.809Z,3.48
2022-12-01T08:21:15.708Z,3.41
2022-12-01T08:23:42.737Z,3.60
2022-12-01T08:26:14.217Z,3.67
2022-12-01T08:28:41.784Z,3.78
2022-12-01T08:31:33.176Z,3.83
2022-12-01T08:33:59.722Z,3.87
2022-12-01T08:36:26.347Z,3.93
2022-12-01T08:38:55.164Z,4.07
2022-12-01T08:41:22.643Z,3.92
2022-12-01T08:43:58.109Z,4.17
2022-12-01T08:46:27.289Z,4.11
2022-12-01T08:48:55.104Z,4.05
2022-12-01T08:51:21.629Z,3.82
2022-12-01T08:53:49.999Z,3.69
2022-12-01T08:56:38.987Z,3.90
2022-12-01T08:59:06.019Z,4.02
2022-12-01T09:01:33.276Z,4.17
2022-12-01T09:04:08.806Z,4.22
2022-12-01T09:06:40.808Z,4.15
2022-12-01T09:09:09.698Z,4.26
2022-12-01T09:11:36.806Z,4.42
2022-12-01T09:14:03.491Z,4.47
2022-12-01T09:16:30.442Z,4.52
2022-12-01T09:18:57.055Z,4.64
2022-12-01T09:21:30.406Z,4.59
2022-12-01T09:23:56.977Z,4.63
2022-12-01T09:26:24.246Z,4.58
2022-12-01T09:28:54.910Z,4.53
2022-12-01T09:31:23.442Z,4.73
2022-12-01T09:34:01.879Z,4.46
2022-12-01T09:36:30.255Z,4.34
2022-12-01T09:38:57.282Z,4.37
2022-12-01T09:41:31.171Z,4.46
2022-12-01T09:44:28.152Z,4.55
2022-12-01T09:47:00.514Z,4.48
2022-12-01T09:49:46.207Z,4.58
2022-12-01T09:52:16.258Z,4.66
2022-12-01T09:54:43.082Z,4.80
2022-12-01T09:57:40.433Z,4.91
2022-12-01T10:00:14.468Z,4.89
2022-12-01T10:03:17.450Z,4.89
2022-12-01T10:09:24.496Z,5.17
2022-12-01T10:11:55.048Z,5.15
2022-12-01T10:14:22.192Z,5.16
2022-12-01T10:17:23.132Z,5.21
2022-12-01T10:20:19.083Z,5.33
2022-12-01T10:22:50.872Z,5.27
2022-12-01T10:25:17.380Z,5.37
2022-12-01T10:28:04.216Z,5.48
2022-12-01T10:30:30.754Z,5.52
2022-12-01T10:33:17.254Z,5.58
2022-12-01T10:35:43.831Z,5.56
2022-12-01T10:38:24.178Z,5.51
2022-12-01T10:40:51.657Z,5.49
2022-12-01T10:43:18.080Z,5.30
2022-12-01T10:45:45.486Z,5.26
2022-12-01T10:48:17.492Z,5.23
2022-12-01T10:50:54.460Z,5.12
2022-12-01T10:53:31.994Z,5.18
2022-12-01T10:56:17.193Z,5.26
2022-12-01T10:58:48.668Z,5.32
2022-12-01T11:01:35.870Z,5.20
2022-12-01T11:04:44.989Z,5.25
2022-12-01T11:07:24.910Z,5.24
2022-12-01T11:10:03.423Z,5.46
2022-12-01T11:12:30.478Z,5.52
2022-12-01T11:14:57.647Z,5.81
2022-12-01T11:17:36.107Z,5.79
2022-12-01T11:20:27.676Z,5.80
2022-12-01T11:23:09.569Z,5.74
2022-12-01T11:25:36.601Z,5.79
2022-12-01T11:28:04.446Z,5.96
2022-12-01T11:30:32.800Z,5.88
2022-12-01T11:33:01.835Z,5.88
2022-12-01T11:35:32.039Z,5.76
2022-12-01T11:40:52.016Z,5.41
2022-12-01T11:43:27.419Z,5.61
2022-12-01T11:45:55.872Z,5.60
2022-12-01T11:48:25.824Z,5.37
2022-12-01T11:51:15.729Z,5.19
2022-12-01T11:53:43.485Z,5.16
2022-12-01T11:56:12.874Z,5.08
2022-12-01T11:58:39.644Z,5.17
2022-12-01T12:01:25.602Z,5.10
2022-12-01T12:04:05.383Z,5.28
2022-12-01T12:06:44.120Z,5.21
2022-12-01T12:09:10.599Z,5.30
2022-12-01T12:11:46.616Z,5.13
2022-12-01T12:14:48.562Z,5.36
2022-12-01T12:17:33.793Z,5.38
2022-12-01T12:20:36.278Z,5.49
2022-12-01T12:23:24.807Z,5.23
2022-12-01T12:26:07.348Z,5.13
2022-12-01T12:28:55.136Z,4.92
2022-12-01T12:31:43.590Z,4.80
2022-12-01T12:34:23.663Z,4.94
2022-12-01T12:36:50.147Z,5.04
2022-12-01T12:39:34.871Z,5.12
2022-12-01T12:42:04.099Z,5.02
2022-12-01T12:44:39.671Z,4.88
2022-12-01T12:47:40.204Z,4.87
2022-12-01T12:50:21.680Z,4.92
2022-12-01T12:52:53.791Z,4.96
2022-12-01T12:55:22.713Z,4.95
2022-12-01T12:57:56.856Z,4.84
2022-12-01T13:00:28.356Z,4.92
2022-12-01T13:03:06.064Z,4.87
2022-12-01T13:05:43.923Z,4.90
2022-12-01T13:08:18.522Z,4.85
2022-12-01T13:10:47.694Z,4.70
2022-12-01T13:13:17.136Z,5.00
2022-12-01T13:15:44.221Z,5.03
2022-12-01T13:18:25.437Z,5.15
2022-12-01T13:20:54.260Z,5.03
2022-12-01T13:23:21.952Z,5.11
2022-12-01T13:25:54.014Z,5.20
2022-12-01T13:28:27.648Z,5.20
2022-12-01T13:30:58.904Z,5.05
2022-12-01T13:33:25.665Z,5.17
2022-12-01T13:36:22.499Z,4.93
2022-12-01T13:38:40.760Z,5.02
2022-12-01T13:41:10.412Z,5.03
2022-12-01T13:43:45.462Z,5.07
2022-12-01T13:46:44.220Z,4.92
2022-12-01T13:49:43.737Z,4.99
2022-12-01T13:52:22.262Z,4.88
2022-12-01T13:55:15.352Z,4.84
2022-12-01T13:57:49.350Z,4.81
2022-12-01T14:00:27.014Z,4.91
2022-12-01T14:03:12.047Z,4.91
2022-12-01T14:05:53.680Z,4.96
2022-12-01T14:08:29.191Z,5.07
2022-12-01T14:11:18.332Z,5.05
2022-12-01T14:14:03.123Z,4.99
2022-12-01T14:16:58.917Z,4.98
2022-12-01T14:20:08.423Z,4.95
2022-12-01T14:22:39.340Z,4.84
2022-12-01T14:25:29.047Z,4.92
2022-12-01T14:27:59.786Z,4.89
2022-12-01T14:30:45.796Z,4.85
2022-12-01T14:33:43.439Z,4.88
2022-12-01T14:36:24.878Z,4.81
2022-12-01T14:38:54.662Z,4.80
2022-12-01T14:41:26.281Z,4.72
2022-12-01T14:44:03.835Z,4.61
2022-12-01T14:46:52.910Z,4.63
2022-12-01T14:49:31.413Z,4.43
2022-12-01T14:52:06.923Z,4.50
2022-12-01T14:54:43.448Z,4.52
2022-12-01T14:57:16.533Z,4.49
2022-12-01T14:59:43.504Z,4.35
2022-12-01T15:02:12.146Z,4.45
2022-12-01T15:05:12.531Z,4.43
2022-12-01T15:07:41.226Z,4.49
2022-12-01T15:10:24.591Z,4.40
2022-12-01T15:12:52.602Z,4.29
2022-12-01T15:15:25.416Z,4.35
2022-12-01T15:17:55.432Z,4.34
2022-12-01T15:20:29.670Z,4.17
2022-12-01T15:22:57.376Z,4.18
2022-12-01T15:25:27.730Z,4.19
2022-12-01T15:28:13.118Z,3.99
2022-12-01T15:30:41.862Z,4.11
2022-12-01T15:33:24.036Z,4.13
2022-12-01T15:35:54.451Z,4.12
2022-12-01T15:38:28.699Z,4.09
2022-12-01T15:43:43.245Z,4.15
2022-12-01T15:46:12.930Z,4.18
2022-12-01T15:48:40.004Z,4.15
2022-12-01T15:51:37.993Z,4.18
2022-12-01T15:54:04.651Z,4.14
2022-12-01T15:56:41.532Z,4.04
2022-12-01T15:59:13.800Z,3.91
2022-12-01T16:01:42.987Z,3.88
2022-12-01T16:04:27.971Z,3.80
2022-12-01T16:06:57.118Z,4.01
2022-12-01T16:09:32.007Z,3.99
2022-12-01T16:12:17.605Z,3.92
2022-12-01T16:14:53.192Z,3.91
2022-12-01T16:17:19.705Z,3.87
2022-12-01T16:19:46.155Z,3.89
2022-12-01T16:22:21.732Z,3.98
2022-12-01T16:24:55.267Z,3.94
2022-12-01T16:27:28.076Z,3.91
2022-12-01T16:29:57.955Z,3.94
2022-12-01T16:32:41.323Z,3.85
2022-12-01T16:35:30.506Z,3.87
2022-12-01T16:37:58.318Z,3.92
2022-12-01T16:40:25.784Z,3.91
2022-12-01T16:42:52.478Z,3.87
2022-12-01T16:45:19.813Z,3.88
2022-12-01T16:47:48.865Z,3.84
2022-12-01T16:50:17.290Z,3.91
2022-12-01T16:52:45.236Z,3.99
2022-12-01T16:55:27.263Z,3.90
2022-12-01T16:57:53.828Z,3.90
2022-12-01T17:00:20.690Z,3.85
2022-12-01T17:02:47.461Z,3.88
2022-12-01T17:05:14.015Z,3.84
2022-12-01T17:07:40.662Z,3.91
2022-12-01T17:10:07.718Z,3.88
2022-12-01T17:12:34.180Z,3.76
2022-12-01T17:15:00.643Z,3.76
2022-12-01T17:17:28.409Z,3.81
2022-12-01T17:19:55.254Z,3.86
2022-12-01T17:22:21.904Z,3.86
2022-12-01T17:24:48.767Z,3.91
2022-12-01T17:27:15.758Z,3.93
2022-12-01T17:29:46.074Z,3.89
2022-12-01T17:32:13.757Z,3.88
2022-12-01T17:34:40.258Z,3.95
2022-12-01T17:37:06.696Z,4.00
2022-12-01T17:39:33.278Z,3.98
2022-12-01T17:41:59.687Z,3.96
2022-12-01T17:44:26.360Z,3.88
2022-12-01T17:46:52.933Z,3.84
2022-12-01T17:49:19.448Z,3.88
2022-12-01T17:51:46.004Z,3.87
2022-12-01T17:54:12.628Z,3.94
2022-12-01T17:56:39.109Z,3.95
2022-12-01T17:59:05.719Z,3.95
2022-12-01T18:01:32.428Z,3.90
2022-12-01T18:03:59.133Z,3.96
2022-12-01T18:06:26.905Z,3.93
2022-12-01T18:08:53.978Z,3.95
2022-12-01T18:11:20.811Z,3.96
2022-12-01T18:13:49.989Z,3.97
2022-12-01T18:16:27.082Z,3.98
2022-12-01T18:18:54.491Z,3.93
2022-12-01T18:21:23.560Z,3.87
2022-12-01T18:24:02.743Z,3.89
2022-12-01T18:26:32.037Z,4.22
2022-12-01T18:29:07.343Z,4.20
2022-12-01T18:31:34.947Z,4.26
2022-12-01T18:34:03.334Z,4.25
2022-12-01T18:36:32.522Z,4.24
2022-12-01T18:39:00.229Z,4.25
2022-12-01T18:41:27.680Z,4.11
2022-12-01T18:43:54.187Z,4.08
2022-12-01T18:46:21.550Z,4.05
2022-12-01T18:48:50.642Z,4.03
2022-12-01T18:51:18.455Z,4.07
2022-12-01T18:53:47.816Z,3.91
2022-12-01T18:56:15.481Z,3.86
2022-12-01T18:58:42.272Z,3.89
2022-12-01T19:01:37.754Z,3.89
2022-12-01T19:04:05.294Z,3.83
2022-12-01T19:06:34.354Z,3.76
2022-12-01T19:09:02.328Z,3.77
2022-12-01T19:11:28.860Z,3.69
2022-12-01T19:13:56.477Z,3.80
2022-12-01T19:16:23.192Z,3.87
2022-12-01T19:18:49.967Z,3.88
2022-12-01T19:21:18.651Z,3.91
2022-12-01T19:23:46.394Z,3.83
2022-12-01T19:26:16.664Z,3.82
2022-12-01T19:28:45.757Z,3.80
2022-12-01T19:31:15.452Z,3.73
2022-12-01T19:33:42.021Z,3.86
2022-12-01T19:36:18.008Z,3.82
2022-12-01T19:38:45.163Z,3.82
2022-12-01T19:41:12.794Z,3.71
2022-12-01T19:43:40.068Z,3.88
2022-12-01T19:46:13.134Z,3.90
2022-12-01T19:48:39.777Z,3.88
2022-12-01T19:51:06.662Z,3.85
2022-12-01T19:53:34.276Z,3.84
2022-12-01T19:56:04.863Z,3.92
2022-12-01T19:58:34.950Z,3.92
2022-12-01T20:01:13.494Z,3.84
2022-12-01T20:03:41.162Z,3.85
2022-12-01T20:06:16.069Z,3.89
2022-12-01T20:08:42.941Z,3.89
2022-12-01T20:11:10.413Z,3.91
2022-12-01T20:13:39.667Z,3.92
2022-12-01T20:16:11.755Z,3.89
2022-12-01T20:18:39.354Z,3.90
2022-12-01T20:21:28.840Z,3.94
2022-12-01T20:23:58.190Z,3.95
2022-12-01T20:26:30.830Z,3.90
2022-12-01T20:29:04.526Z,3.90
2022-12-01T20:31:32.547Z,3.91
2022-12-01T20:34:01.484Z,3.95
2022-12-01T20:36:28.479Z,3.96
2022-12-01T20:38:55.528Z,3.95
2022-12-01T20:41:22.845Z,3.96
2022-12-01T20:43:49.471Z,3.90
2022-12-01T20:46:16.064Z,3.96
2022-12-01T20:48:45.906Z,4.02
2022-12-01T20:51:13.937Z,3.96
2022-12-01T20:53:54.492Z,3.90
2022-12-01T20:56:27.784Z,3.91
2022-12-01T20:58:54.403Z,3.92
2022-12-01T21:01:22.426Z,3.89
2022-12-01T21:03:50.820Z,3.74
2022-12-01T21:06:18.099Z,3.85
2022-12-01T21:08:47.062Z,3.88
2022-12-01T21:11:13.477Z,3.87
2022-12-01T21:13:43.178Z,3.93
2022-12-01T21:16:14.338Z,3.98
2022-12-01T21:18:48.234Z,3.98
2022-12-01T21:21:22.464Z,3.84
2022-12-01T21:23:58.345Z,3.82
2022-12-01T21:26:25.829Z,3.91
2022-12-01T21:28:55.266Z,3.96
2022-12-01T21:31:21.763Z,4.05
2022-12-01T21:33:48.309Z,4.00
2022-12-01T21:36:20.947Z,3.92
2022-12-01T21:38:52.960Z,4.04
2022-12-01T21:41:27.617Z,4.02
2022-12-01T21:44:02.573Z,4.05
2022-12-01T21:46:29.799Z,4.08
2022-12-01T21:48:56.401Z,3.99
2022-12-01T21:51:24.767Z,3.96
2022-12-01T21:53:55.678Z,4.02
2022-12-01T21:56:25.545Z,3.93
2022-12-01T21:58:53.033Z,3.98
2022-12-01T22:01:31.099Z,4.04
2022-12-01T22:04:05.589Z,4.01
2022-12-01T22:06:38.782Z,3.95
2022-12-01T22:09:23.468Z,4.00
2022-12-01T22:12:00.644Z,4.04
2022-12-01T22:14:34.623Z,4.00
2022-12-01T22:17:20.508Z,4.00
2022-12-01T22:19:57.543Z,4.01
2022-12-01T22:22:26.478Z,4.01
2022-12-01T22:25:00.940Z,4.07
2022-12-01T22:27:31.871Z,4.04
2022-12-01T22:30:07.573Z,4.06
2022-12-01T22:32:53.870Z,4.05
2022-12-01T22:35:36.402Z,4.01
2022-12-01T22:38:05.787Z,4.00
2022-12-01T22:40:58.595Z,4.03
2022-12-01T22:43:32.192Z,4.03
2022-12-01T22:46:16.544Z,4.01
2022-12-01T22:48:58.048Z,4.00
2022-12-01T22:51:55.662Z,4.01
2022-12-01T22:54:27.474Z,3.93
2022-12-01T22:57:22.856Z,3.92
2022-12-01T22:59:50.316Z,3.88
2022-12-01T23:02:22.640Z,3.96
2022-12-01T23:04:56.999Z,3.93
2022-12-01T23:07:32.597Z,3.84
2022-12-01T23:10:14.373Z,3.87
2022-12-01T23:12:41.139Z,3.90
2022-12-01T23:15:19.667Z,3.96
2022-12-01T23:17:46.239Z,3.90
2022-12-01T23:20:28.039Z,3.89
2022-12-01T23:22:56.619Z,3.92
2022-12-01T23:25:24.082Z,3.92
2022-12-01T23:27:52.535Z,3.91
2022-12-01T23:30:23.628Z,3.91
2022-12-01T23:33:03.998Z,3.99
2022-12-01T23:35:32.713Z,3.88
2022-12-01T23:38:00.241Z,3.89
2022-12-01T23:40:33.033Z,3.88
2022-12-01T23:43:26.982Z,3.92
2022-12-01T23:46:27.712Z,3.89
2022-12-01T23:49:01.799Z,3.92
2022-12-01T23:51:37.106Z,3.92
2022-12-01T23:54:17.927Z,3.91
2022-12-01T23:56:50.010Z,3.94
2022-12-01T23:59:16.786Z,3.92
